sensor_id;sensor_type;location;lat;lon;timestamp;P1;durP1;ratioP1;P2;durP2;ratioP2
64907;SDS011;69061;52.236;5.188;2024-01-30T00:00:10;44.92;;;24.52;;
64907;SDS011;69061;52.236;5.188;2024-01-30T00:02:37;42.95;;;24.75;;
64907;SDS011;69061;52.236;5.188;2024-01-30T00:05:06;40.65;;;22.83;;
64907;SDS011;69061;52.236;5.188;2024-01-30T00:07:33;44.22;;;24.33;;
64907;SDS011;69061;52.236;5.188;2024-01-30T00:10:00;43.80;;;24.38;;
64907;SDS011;69061;52.236;5.188;2024-01-30T00:12:27;49.13;;;25.42;;
64907;SDS011;69061;52.236;5.188;2024-01-30T00:14:53;42.40;;;24.42;;
64907;SDS011;69061;52.236;5.188;2024-01-30T00:17:20;43.33;;;25.13;;
64907;SDS011;69061;52.236;5.188;2024-01-30T00:19:47;44.13;;;23.92;;
64907;SDS011;69061;52.236;5.188;2024-01-30T00:22:16;46.97;;;24.48;;
64907;SDS011;69061;52.236;5.188;2024-01-30T00:24:43;43.13;;;23.08;;
64907;SDS011;69061;52.236;5.188;2024-01-30T00:27:10;55.25;;;25.13;;
64907;SDS011;69061;52.236;5.188;2024-01-30T00:29:36;52.90;;;24.95;;
64907;SDS011;69061;52.236;5.188;2024-01-30T00:32:03;49.80;;;24.05;;
64907;SDS011;69061;52.236;5.188;2024-01-30T00:34:32;46.65;;;24.13;;
64907;SDS011;69061;52.236;5.188;2024-01-30T00:36:59;46.30;;;21.63;;
64907;SDS011;69061;52.236;5.188;2024-01-30T00:39:27;46.38;;;24.65;;
64907;SDS011;69061;52.236;5.188;2024-01-30T00:41:54;44.47;;;24.00;;
64907;SDS011;69061;52.236;5.188;2024-01-30T00:44:21;43.90;;;24.38;;
64907;SDS011;69061;52.236;5.188;2024-01-30T00:46:48;47.42;;;26.15;;
64907;SDS011;69061;52.236;5.188;2024-01-30T00:49:14;38.92;;;22.40;;
64907;SDS011;69061;52.236;5.188;2024-01-30T00:51:41;40.17;;;22.45;;
64907;SDS011;69061;52.236;5.188;2024-01-30T00:54:08;39.55;;;21.80;;
64907;SDS011;69061;52.236;5.188;2024-01-30T00:56:36;49.00;;;23.88;;
64907;SDS011;69061;52.236;5.188;2024-01-30T00:59:03;39.03;;;21.38;;
64907;SDS011;69061;52.236;5.188;2024-01-30T01:01:34;38.63;;;22.20;;
64907;SDS011;69061;52.236;5.188;2024-01-30T01:04:01;38.70;;;20.52;;
64907;SDS011;69061;52.236;5.188;2024-01-30T01:06:28;40.13;;;21.05;;
64907;SDS011;69061;52.236;5.188;2024-01-30T01:08:55;39.63;;;22.25;;
64907;SDS011;69061;52.236;5.188;2024-01-30T01:11:21;41.72;;;22.52;;
64907;SDS011;69061;52.236;5.188;2024-01-30T01:13:49;37.08;;;21.08;;
64907;SDS011;69061;52.236;5.188;2024-01-30T01:16:16;35.65;;;20.20;;
64907;SDS011;69061;52.236;5.188;2024-01-30T01:18:44;40.63;;;20.83;;
64907;SDS011;69061;52.236;5.188;2024-01-30T01:21:11;44.70;;;21.85;;
64907;SDS011;69061;52.236;5.188;2024-01-30T01:23:37;35.20;;;20.27;;
64907;SDS011;69061;52.236;5.188;2024-01-30T01:26:04;43.15;;;23.23;;
64907;SDS011;69061;52.236;5.188;2024-01-30T01:28:30;42.45;;;21.92;;
64907;SDS011;69061;52.236;5.188;2024-01-30T01:30:59;41.75;;;22.33;;
64907;SDS011;69061;52.236;5.188;2024-01-30T01:33:30;35.40;;;20.85;;
64907;SDS011;69061;52.236;5.188;2024-01-30T01:35:57;37.88;;;21.25;;
64907;SDS011;69061;52.236;5.188;2024-01-30T01:38:23;38.20;;;20.98;;
64907;SDS011;69061;52.236;5.188;2024-01-30T01:40:50;40.05;;;20.83;;
64907;SDS011;69061;52.236;5.188;2024-01-30T01:43:17;37.35;;;20.35;;
64907;SDS011;69061;52.236;5.188;2024-01-30T01:45:44;43.50;;;21.70;;
64907;SDS011;69061;52.236;5.188;2024-01-30T01:48:13;39.33;;;20.17;;
64907;SDS011;69061;52.236;5.188;2024-01-30T01:50:40;38.03;;;20.35;;
64907;SDS011;69061;52.236;5.188;2024-01-30T01:53:07;34.95;;;18.05;;
64907;SDS011;69061;52.236;5.188;2024-01-30T01:55:34;34.20;;;20.00;;
64907;SDS011;69061;52.236;5.188;2024-01-30T01:58:02;40.38;;;20.88;;
64907;SDS011;69061;52.236;5.188;2024-01-30T02:00:29;39.65;;;21.08;;
64907;SDS011;69061;52.236;5.188;2024-01-30T02:02:57;34.88;;;18.63;;
64907;SDS011;69061;52.236;5.188;2024-01-30T02:05:25;32.13;;;18.85;;
64907;SDS011;69061;52.236;5.188;2024-01-30T02:07:52;39.05;;;20.48;;
64907;SDS011;69061;52.236;5.188;2024-01-30T02:10:21;40.92;;;20.63;;
64907;SDS011;69061;52.236;5.188;2024-01-30T02:12:48;37.97;;;21.40;;
64907;SDS011;69061;52.236;5.188;2024-01-30T02:15:15;36.30;;;19.55;;
64907;SDS011;69061;52.236;5.188;2024-01-30T02:17:44;38.75;;;22.00;;
64907;SDS011;69061;52.236;5.188;2024-01-30T02:20:11;32.83;;;20.13;;
64907;SDS011;69061;52.236;5.188;2024-01-30T02:22:39;40.25;;;21.33;;
64907;SDS011;69061;52.236;5.188;2024-01-30T02:25:07;40.15;;;21.88;;
64907;SDS011;69061;52.236;5.188;2024-01-30T02:27:34;35.97;;;20.17;;
64907;SDS011;69061;52.236;5.188;2024-01-30T02:30:01;37.70;;;19.85;;
64907;SDS011;69061;52.236;5.188;2024-01-30T02:32:27;33.88;;;19.25;;
64907;SDS011;69061;52.236;5.188;2024-01-30T02:34:55;36.10;;;19.95;;
64907;SDS011;69061;52.236;5.188;2024-01-30T02:37:21;40.13;;;21.20;;
64907;SDS011;69061;52.236;5.188;2024-01-30T02:39:50;36.75;;;19.35;;
64907;SDS011;69061;52.236;5.188;2024-01-30T02:42:17;37.50;;;20.13;;
64907;SDS011;69061;52.236;5.188;2024-01-30T02:44:43;35.67;;;21.02;;
64907;SDS011;69061;52.236;5.188;2024-01-30T02:47:10;33.97;;;20.95;;
64907;SDS011;69061;52.236;5.188;2024-01-30T02:49:37;36.25;;;19.95;;
64907;SDS011;69061;52.236;5.188;2024-01-30T02:52:04;37.28;;;19.92;;
64907;SDS011;69061;52.236;5.188;2024-01-30T02:54:30;38.45;;;19.85;;
64907;SDS011;69061;52.236;5.188;2024-01-30T02:56:59;38.88;;;21.15;;
64907;SDS011;69061;52.236;5.188;2024-01-30T02:59:26;35.67;;;19.77;;
64907;SDS011;69061;52.236;5.188;2024-01-30T03:01:53;40.10;;;21.92;;
64907;SDS011;69061;52.236;5.188;2024-01-30T03:04:20;35.45;;;20.02;;
64907;SDS011;69061;52.236;5.188;2024-01-30T03:06:45;50.20;;;22.08;;
64907;SDS011;69061;52.236;5.188;2024-01-30T03:09:13;43.65;;;22.35;;
64907;SDS011;69061;52.236;5.188;2024-01-30T03:11:39;44.97;;;22.77;;
64907;SDS011;69061;52.236;5.188;2024-01-30T03:14:07;53.42;;;24.40;;
64907;SDS011;69061;52.236;5.188;2024-01-30T03:16:36;47.20;;;23.30;;
64907;SDS011;69061;52.236;5.188;2024-01-30T03:19:02;43.00;;;21.05;;
64907;SDS011;69061;52.236;5.188;2024-01-30T03:21:30;41.75;;;21.33;;
64907;SDS011;69061;52.236;5.188;2024-01-30T03:23:56;42.25;;;22.17;;
64907;SDS011;69061;52.236;5.188;2024-01-30T03:26:23;40.80;;;22.88;;
64907;SDS011;69061;52.236;5.188;2024-01-30T03:28:49;35.75;;;20.30;;
64907;SDS011;69061;52.236;5.188;2024-01-30T03:31:18;34.85;;;19.77;;
64907;SDS011;69061;52.236;5.188;2024-01-30T03:33:45;40.58;;;20.45;;
64907;SDS011;69061;52.236;5.188;2024-01-30T03:36:11;39.97;;;21.15;;
64907;SDS011;69061;52.236;5.188;2024-01-30T03:38:38;34.55;;;20.45;;
64907;SDS011;69061;52.236;5.188;2024-01-30T03:41:07;44.15;;;20.98;;
64907;SDS011;69061;52.236;5.188;2024-01-30T03:43:33;44.95;;;22.02;;
64907;SDS011;69061;52.236;5.188;2024-01-30T03:46:00;37.75;;;18.52;;
64907;SDS011;69061;52.236;5.188;2024-01-30T03:48:29;31.85;;;18.38;;
64907;SDS011;69061;52.236;5.188;2024-01-30T03:50:55;39.88;;;18.42;;
64907;SDS011;69061;52.236;5.188;2024-01-30T03:53:22;41.22;;;20.00;;
64907;SDS011;69061;52.236;5.188;2024-01-30T03:55:49;36.22;;;20.08;;
64907;SDS011;69061;52.236;5.188;2024-01-30T03:58:15;35.63;;;19.25;;
64907;SDS011;69061;52.236;5.188;2024-01-30T04:00:42;40.15;;;19.92;;
64907;SDS011;69061;52.236;5.188;2024-01-30T04:03:09;35.22;;;18.42;;
64907;SDS011;69061;52.236;5.188;2024-01-30T04:05:37;36.10;;;18.83;;
64907;SDS011;69061;52.236;5.188;2024-01-30T04:08:04;37.75;;;19.52;;
64907;SDS011;69061;52.236;5.188;2024-01-30T04:10:31;40.80;;;21.38;;
64907;SDS011;69061;52.236;5.188;2024-01-30T04:12:58;31.63;;;19.27;;
64907;SDS011;69061;52.236;5.188;2024-01-30T04:15:24;37.22;;;19.02;;
64907;SDS011;69061;52.236;5.188;2024-01-30T04:17:52;43.05;;;20.13;;
64907;SDS011;69061;52.236;5.188;2024-01-30T04:20:19;34.85;;;19.42;;
64907;SDS011;69061;52.236;5.188;2024-01-30T04:22:48;36.20;;;19.70;;
64907;SDS011;69061;52.236;5.188;2024-01-30T04:25:14;37.10;;;19.23;;
64907;SDS011;69061;52.236;5.188;2024-01-30T04:27:42;38.85;;;20.08;;
64907;SDS011;69061;52.236;5.188;2024-01-30T04:30:10;41.03;;;21.40;;
64907;SDS011;69061;52.236;5.188;2024-01-30T04:32:37;37.95;;;20.15;;
64907;SDS011;69061;52.236;5.188;2024-01-30T04:35:05;44.50;;;21.33;;
64907;SDS011;69061;52.236;5.188;2024-01-30T04:37:33;41.08;;;22.05;;
64907;SDS011;69061;52.236;5.188;2024-01-30T04:40:02;38.22;;;22.08;;
64907;SDS011;69061;52.236;5.188;2024-01-30T04:42:30;34.15;;;19.98;;
64907;SDS011;69061;52.236;5.188;2024-01-30T04:44:56;37.58;;;19.83;;
64907;SDS011;69061;52.236;5.188;2024-01-30T04:47:23;40.72;;;22.00;;
64907;SDS011;69061;52.236;5.188;2024-01-30T04:49:51;41.67;;;22.00;;
64907;SDS011;69061;52.236;5.188;2024-01-30T04:52:17;36.45;;;19.95;;
64907;SDS011;69061;52.236;5.188;2024-01-30T04:54:46;38.58;;;21.05;;
64907;SDS011;69061;52.236;5.188;2024-01-30T04:57:14;39.05;;;22.20;;
64907;SDS011;69061;52.236;5.188;2024-01-30T04:59:41;40.83;;;22.45;;
64907;SDS011;69061;52.236;5.188;2024-01-30T05:02:07;43.45;;;23.63;;
64907;SDS011;69061;52.236;5.188;2024-01-30T05:04:34;41.72;;;25.45;;
64907;SDS011;69061;52.236;5.188;2024-01-30T05:07:02;46.60;;;22.13;;
64907;SDS011;69061;52.236;5.188;2024-01-30T05:09:29;39.50;;;19.92;;
64907;SDS011;69061;52.236;5.188;2024-01-30T05:11:56;39.78;;;20.65;;
64907;SDS011;69061;52.236;5.188;2024-01-30T05:14:24;43.83;;;22.45;;
64907;SDS011;69061;52.236;5.188;2024-01-30T05:16:51;38.40;;;20.98;;
64907;SDS011;69061;52.236;5.188;2024-01-30T05:19:19;48.17;;;23.35;;
64907;SDS011;69061;52.236;5.188;2024-01-30T05:21:48;39.72;;;21.15;;
64907;SDS011;69061;52.236;5.188;2024-01-30T05:24:15;38.88;;;21.52;;
64907;SDS011;69061;52.236;5.188;2024-01-30T05:26:42;39.47;;;20.15;;
64907;SDS011;69061;52.236;5.188;2024-01-30T05:29:08;42.10;;;21.08;;
64907;SDS011;69061;52.236;5.188;2024-01-30T05:31:38;40.65;;;22.10;;
64907;SDS011;69061;52.236;5.188;2024-01-30T05:34:05;39.50;;;20.80;;
64907;SDS011;69061;52.236;5.188;2024-01-30T05:36:34;42.00;;;23.00;;
64907;SDS011;69061;52.236;5.188;2024-01-30T05:39:00;33.67;;;18.77;;
64907;SDS011;69061;52.236;5.188;2024-01-30T05:41:27;38.47;;;21.75;;
64907;SDS011;69061;52.236;5.188;2024-01-30T05:43:54;41.10;;;21.50;;
64907;SDS011;69061;52.236;5.188;2024-01-30T05:46:21;38.05;;;21.00;;
64907;SDS011;69061;52.236;5.188;2024-01-30T05:48:49;35.25;;;19.92;;
64907;SDS011;69061;52.236;5.188;2024-01-30T05:51:16;37.17;;;20.38;;
64907;SDS011;69061;52.236;5.188;2024-01-30T05:53:42;40.15;;;19.77;;
64907;SDS011;69061;52.236;5.188;2024-01-30T05:56:09;38.72;;;19.75;;
64907;SDS011;69061;52.236;5.188;2024-01-30T05:58:36;40.92;;;20.55;;
64907;SDS011;69061;52.236;5.188;2024-01-30T06:01:03;41.35;;;21.45;;
64907;SDS011;69061;52.236;5.188;2024-01-30T06:03:32;38.88;;;20.85;;
64907;SDS011;69061;52.236;5.188;2024-01-30T06:06:00;33.53;;;18.45;;
64907;SDS011;69061;52.236;5.188;2024-01-30T06:08:27;37.92;;;19.85;;
64907;SDS011;69061;52.236;5.188;2024-01-30T06:10:54;42.33;;;20.02;;
64907;SDS011;69061;52.236;5.188;2024-01-30T06:13:20;33.55;;;17.80;;
64907;SDS011;69061;52.236;5.188;2024-01-30T06:15:47;39.95;;;19.52;;
64907;SDS011;69061;52.236;5.188;2024-01-30T06:18:13;35.67;;;18.30;;
64907;SDS011;69061;52.236;5.188;2024-01-30T06:20:40;34.22;;;19.25;;
64907;SDS011;69061;52.236;5.188;2024-01-30T06:23:08;44.33;;;19.65;;
64907;SDS011;69061;52.236;5.188;2024-01-30T06:25:35;36.30;;;19.10;;
64907;SDS011;69061;52.236;5.188;2024-01-30T06:28:01;29.20;;;18.20;;
64907;SDS011;69061;52.236;5.188;2024-01-30T06:30:28;35.13;;;17.73;;
64907;SDS011;69061;52.236;5.188;2024-01-30T06:32:57;32.70;;;19.17;;
64907;SDS011;69061;52.236;5.188;2024-01-30T06:35:23;32.72;;;18.13;;
64907;SDS011;69061;52.236;5.188;2024-01-30T06:37:51;38.65;;;19.77;;
64907;SDS011;69061;52.236;5.188;2024-01-30T06:40:19;40.00;;;19.30;;
64907;SDS011;69061;52.236;5.188;2024-01-30T06:42:46;37.13;;;19.08;;
64907;SDS011;69061;52.236;5.188;2024-01-30T06:45:12;34.90;;;18.40;;
64907;SDS011;69061;52.236;5.188;2024-01-30T06:47:40;33.33;;;17.40;;
64907;SDS011;69061;52.236;5.188;2024-01-30T06:50:07;36.10;;;18.65;;
64907;SDS011;69061;52.236;5.188;2024-01-30T06:52:34;35.50;;;18.90;;
64907;SDS011;69061;52.236;5.188;2024-01-30T06:55:01;36.35;;;16.50;;
64907;SDS011;69061;52.236;5.188;2024-01-30T06:57:29;31.02;;;16.17;;
64907;SDS011;69061;52.236;5.188;2024-01-30T06:59:56;35.20;;;18.67;;
64907;SDS011;69061;52.236;5.188;2024-01-30T07:02:23;36.17;;;19.08;;
64907;SDS011;69061;52.236;5.188;2024-01-30T07:04:50;40.97;;;18.58;;
64907;SDS011;69061;52.236;5.188;2024-01-30T07:07:17;31.85;;;17.95;;
64907;SDS011;69061;52.236;5.188;2024-01-30T07:09:44;40.47;;;17.80;;
64907;SDS011;69061;52.236;5.188;2024-01-30T07:12:12;34.53;;;18.00;;
64907;SDS011;69061;52.236;5.188;2024-01-30T07:14:40;37.83;;;18.65;;
64907;SDS011;69061;52.236;5.188;2024-01-30T07:17:07;26.92;;;15.90;;
64907;SDS011;69061;52.236;5.188;2024-01-30T07:19:33;28.67;;;15.95;;
64907;SDS011;69061;52.236;5.188;2024-01-30T07:22:00;31.05;;;16.08;;
64907;SDS011;69061;52.236;5.188;2024-01-30T07:24:27;35.40;;;17.73;;
64907;SDS011;69061;52.236;5.188;2024-01-30T07:26:53;34.92;;;17.98;;
64907;SDS011;69061;52.236;5.188;2024-01-30T07:29:20;35.80;;;16.60;;
64907;SDS011;69061;52.236;5.188;2024-01-30T07:31:48;32.15;;;16.63;;
64907;SDS011;69061;52.236;5.188;2024-01-30T07:34:15;31.50;;;17.00;;
64907;SDS011;69061;52.236;5.188;2024-01-30T07:36:41;37.30;;;16.58;;
64907;SDS011;69061;52.236;5.188;2024-01-30T07:39:08;30.77;;;16.33;;
64907;SDS011;69061;52.236;5.188;2024-01-30T07:41:36;31.10;;;15.98;;
64907;SDS011;69061;52.236;5.188;2024-01-30T07:44:02;33.85;;;17.10;;
64907;SDS011;69061;52.236;5.188;2024-01-30T07:46:30;33.97;;;16.85;;
64907;SDS011;69061;52.236;5.188;2024-01-30T07:49:00;32.17;;;16.83;;
64907;SDS011;69061;52.236;5.188;2024-01-30T07:51:27;32.53;;;15.25;;
64907;SDS011;69061;52.236;5.188;2024-01-30T07:54:00;46.63;;;18.38;;
64907;SDS011;69061;52.236;5.188;2024-01-30T07:56:28;30.35;;;16.48;;
64907;SDS011;69061;52.236;5.188;2024-01-30T07:58:55;42.90;;;17.40;;
64907;SDS011;69061;52.236;5.188;2024-01-30T08:01:22;33.75;;;17.48;;
64907;SDS011;69061;52.236;5.188;2024-01-30T08:03:49;35.38;;;17.85;;
64907;SDS011;69061;52.236;5.188;2024-01-30T08:06:17;32.70;;;16.00;;
64907;SDS011;69061;52.236;5.188;2024-01-30T08:08:44;34.42;;;17.08;;
64907;SDS011;69061;52.236;5.188;2024-01-30T08:11:12;37.03;;;17.02;;
64907;SDS011;69061;52.236;5.188;2024-01-30T08:13:38;35.88;;;16.95;;
64907;SDS011;69061;52.236;5.188;2024-01-30T08:16:06;42.28;;;18.58;;
64907;SDS011;69061;52.236;5.188;2024-01-30T08:18:33;37.40;;;15.70;;
64907;SDS011;69061;52.236;5.188;2024-01-30T08:20:59;33.58;;;16.77;;
64907;SDS011;69061;52.236;5.188;2024-01-30T08:23:27;43.13;;;19.00;;
64907;SDS011;69061;52.236;5.188;2024-01-30T08:25:54;38.00;;;17.70;;
64907;SDS011;69061;52.236;5.188;2024-01-30T08:28:21;33.38;;;18.02;;
64907;SDS011;69061;52.236;5.188;2024-01-30T08:30:47;36.25;;;16.60;;
64907;SDS011;69061;52.236;5.188;2024-01-30T08:33:14;32.75;;;17.08;;
64907;SDS011;69061;52.236;5.188;2024-01-30T08:35:42;37.10;;;17.52;;
64907;SDS011;69061;52.236;5.188;2024-01-30T08:38:08;38.10;;;17.83;;
64907;SDS011;69061;52.236;5.188;2024-01-30T08:40:40;36.00;;;17.15;;
64907;SDS011;69061;52.236;5.188;2024-01-30T08:43:07;38.92;;;17.42;;
64907;SDS011;69061;52.236;5.188;2024-01-30T08:45:35;33.92;;;17.15;;
64907;SDS011;69061;52.236;5.188;2024-01-30T08:48:02;43.83;;;18.40;;
64907;SDS011;69061;52.236;5.188;2024-01-30T08:50:29;40.83;;;16.73;;
64907;SDS011;69061;52.236;5.188;2024-01-30T08:52:56;38.40;;;19.20;;
64907;SDS011;69061;52.236;5.188;2024-01-30T08:55:22;39.20;;;19.25;;
64907;SDS011;69061;52.236;5.188;2024-01-30T08:57:50;37.10;;;17.42;;
64907;SDS011;69061;52.236;5.188;2024-01-30T09:00:18;29.75;;;15.77;;
64907;SDS011;69061;52.236;5.188;2024-01-30T09:02:45;46.25;;;18.67;;
64907;SDS011;69061;52.236;5.188;2024-01-30T09:05:11;45.85;;;17.63;;
64907;SDS011;69061;52.236;5.188;2024-01-30T09:07:39;39.33;;;19.00;;
64907;SDS011;69061;52.236;5.188;2024-01-30T09:10:06;43.63;;;19.35;;
64907;SDS011;69061;52.236;5.188;2024-01-30T09:12:33;41.63;;;18.67;;
64907;SDS011;69061;52.236;5.188;2024-01-30T09:15:03;42.25;;;20.15;;
64907;SDS011;69061;52.236;5.188;2024-01-30T09:17:30;32.42;;;16.25;;
64907;SDS011;69061;52.236;5.188;2024-01-30T09:19:56;38.80;;;18.95;;
64907;SDS011;69061;52.236;5.188;2024-01-30T09:22:23;42.83;;;20.05;;
64907;SDS011;69061;52.236;5.188;2024-01-30T09:24:50;47.88;;;19.15;;
64907;SDS011;69061;52.236;5.188;2024-01-30T09:27:16;36.30;;;17.10;;
64907;SDS011;69061;52.236;5.188;2024-01-30T09:29:43;42.97;;;17.90;;
64907;SDS011;69061;52.236;5.188;2024-01-30T09:32:11;43.08;;;18.42;;
64907;SDS011;69061;52.236;5.188;2024-01-30T09:34:37;41.10;;;19.83;;
64907;SDS011;69061;52.236;5.188;2024-01-30T09:37:04;48.65;;;21.25;;
64907;SDS011;69061;52.236;5.188;2024-01-30T09:39:31;35.25;;;17.38;;
64907;SDS011;69061;52.236;5.188;2024-01-30T09:42:00;41.53;;;17.67;;
64907;SDS011;69061;52.236;5.188;2024-01-30T09:44:31;38.20;;;19.23;;
64907;SDS011;69061;52.236;5.188;2024-01-30T09:47:01;35.83;;;19.02;;
64907;SDS011;69061;52.236;5.188;2024-01-30T09:49:32;41.13;;;19.08;;
64907;SDS011;69061;52.236;5.188;2024-01-30T09:52:00;46.72;;;19.20;;
64907;SDS011;69061;52.236;5.188;2024-01-30T09:54:29;45.42;;;19.13;;
64907;SDS011;69061;52.236;5.188;2024-01-30T09:56:56;42.35;;;18.80;;
64907;SDS011;69061;52.236;5.188;2024-01-30T09:59:23;36.20;;;17.23;;
64907;SDS011;69061;52.236;5.188;2024-01-30T10:01:50;40.67;;;17.10;;
64907;SDS011;69061;52.236;5.188;2024-01-30T10:04:17;35.97;;;18.58;;
64907;SDS011;69061;52.236;5.188;2024-01-30T10:06:46;32.30;;;16.83;;
64907;SDS011;69061;52.236;5.188;2024-01-30T10:09:16;44.13;;;18.95;;
64907;SDS011;69061;52.236;5.188;2024-01-30T10:11:42;40.63;;;19.42;;
64907;SDS011;69061;52.236;5.188;2024-01-30T10:14:09;36.10;;;19.40;;
64907;SDS011;69061;52.236;5.188;2024-01-30T10:16:36;42.03;;;17.67;;
64907;SDS011;69061;52.236;5.188;2024-01-30T10:19:03;39.50;;;18.52;;
64907;SDS011;69061;52.236;5.188;2024-01-30T10:21:29;43.03;;;19.08;;
64907;SDS011;69061;52.236;5.188;2024-01-30T10:23:58;35.45;;;18.70;;
64907;SDS011;69061;52.236;5.188;2024-01-30T10:26:25;37.15;;;18.55;;
64907;SDS011;69061;52.236;5.188;2024-01-30T10:28:51;32.08;;;18.50;;
64907;SDS011;69061;52.236;5.188;2024-01-30T10:31:18;37.03;;;17.35;;
64907;SDS011;69061;52.236;5.188;2024-01-30T10:33:45;30.83;;;14.73;;
64907;SDS011;69061;52.236;5.188;2024-01-30T10:36:13;28.98;;;14.60;;
64907;SDS011;69061;52.236;5.188;2024-01-30T10:38:41;35.42;;;14.75;;
64907;SDS011;69061;52.236;5.188;2024-01-30T10:41:12;26.55;;;12.93;;
64907;SDS011;69061;52.236;5.188;2024-01-30T10:43:41;33.90;;;12.93;;
64907;SDS011;69061;52.236;5.188;2024-01-30T10:46:17;27.27;;;13.48;;
64907;SDS011;69061;52.236;5.188;2024-01-30T10:48:46;36.35;;;13.48;;
64907;SDS011;69061;52.236;5.188;2024-01-30T10:51:22;30.75;;;11.93;;
64907;SDS011;69061;52.236;5.188;2024-01-30T10:53:50;34.88;;;13.65;;
64907;SDS011;69061;52.236;5.188;2024-01-30T10:56:18;25.45;;;11.98;;
64907;SDS011;69061;52.236;5.188;2024-01-30T10:58:49;21.95;;;11.38;;
64907;SDS011;69061;52.236;5.188;2024-01-30T11:01:17;32.42;;;12.45;;
64907;SDS011;69061;52.236;5.188;2024-01-30T11:03:45;28.02;;;11.35;;
64907;SDS011;69061;52.236;5.188;2024-01-30T11:06:12;17.27;;;9.68;;
64907;SDS011;69061;52.236;5.188;2024-01-30T11:08:39;26.63;;;9.82;;
64907;SDS011;69061;52.236;5.188;2024-01-30T11:11:08;24.67;;;8.50;;
64907;SDS011;69061;52.236;5.188;2024-01-30T11:13:40;15.40;;;7.82;;
64907;SDS011;69061;52.236;5.188;2024-01-30T11:16:08;17.75;;;8.23;;
64907;SDS011;69061;52.236;5.188;2024-01-30T11:18:39;14.93;;;6.93;;
64907;SDS011;69061;52.236;5.188;2024-01-30T11:21:06;17.70;;;6.85;;
64907;SDS011;69061;52.236;5.188;2024-01-30T11:23:33;20.08;;;7.30;;
64907;SDS011;69061;52.236;5.188;2024-01-30T11:26:01;19.10;;;6.43;;
64907;SDS011;69061;52.236;5.188;2024-01-30T11:28:31;14.27;;;7.65;;
64907;SDS011;69061;52.236;5.188;2024-01-30T11:31:05;16.33;;;8.20;;
64907;SDS011;69061;52.236;5.188;2024-01-30T11:33:33;24.98;;;10.13;;
64907;SDS011;69061;52.236;5.188;2024-01-30T11:36:00;19.77;;;8.55;;
64907;SDS011;69061;52.236;5.188;2024-01-30T11:38:27;16.70;;;8.77;;
64907;SDS011;69061;52.236;5.188;2024-01-30T11:40:55;20.55;;;8.80;;
64907;SDS011;69061;52.236;5.188;2024-01-30T11:43:22;16.30;;;8.20;;
64907;SDS011;69061;52.236;5.188;2024-01-30T11:45:49;16.30;;;8.45;;
64907;SDS011;69061;52.236;5.188;2024-01-30T11:48:20;19.95;;;9.55;;
64907;SDS011;69061;52.236;5.188;2024-01-30T11:50:46;17.75;;;7.97;;
64907;SDS011;69061;52.236;5.188;2024-01-30T11:53:13;20.10;;;8.95;;
64907;SDS011;69061;52.236;5.188;2024-01-30T11:55:40;14.63;;;7.65;;
64907;SDS011;69061;52.236;5.188;2024-01-30T11:58:06;12.45;;;6.63;;
64907;SDS011;69061;52.236;5.188;2024-01-30T12:00:33;13.45;;;6.65;;
64907;SDS011;69061;52.236;5.188;2024-01-30T12:03:02;8.52;;;4.97;;
64907;SDS011;69061;52.236;5.188;2024-01-30T12:05:33;13.00;;;5.13;;
64907;SDS011;69061;52.236;5.188;2024-01-30T12:07:59;19.23;;;5.32;;
64907;SDS011;69061;52.236;5.188;2024-01-30T12:10:26;10.07;;;4.25;;
64907;SDS011;69061;52.236;5.188;2024-01-30T12:12:52;12.98;;;4.78;;
64907;SDS011;69061;52.236;5.188;2024-01-30T12:15:21;17.10;;;5.32;;
64907;SDS011;69061;52.236;5.188;2024-01-30T12:17:48;8.35;;;3.60;;
64907;SDS011;69061;52.236;5.188;2024-01-30T12:20:14;10.95;;;4.55;;
64907;SDS011;69061;52.236;5.188;2024-01-30T12:22:46;14.88;;;4.10;;
64907;SDS011;69061;52.236;5.188;2024-01-30T12:25:13;7.75;;;3.67;;
64907;SDS011;69061;52.236;5.188;2024-01-30T12:27:42;14.32;;;4.85;;
64907;SDS011;69061;52.236;5.188;2024-01-30T12:30:10;12.07;;;4.75;;
64907;SDS011;69061;52.236;5.188;2024-01-30T12:32:39;13.68;;;4.65;;
64907;SDS011;69061;52.236;5.188;2024-01-30T12:35:07;14.85;;;4.13;;
64907;SDS011;69061;52.236;5.188;2024-01-30T12:37:33;9.90;;;4.00;;
64907;SDS011;69061;52.236;5.188;2024-01-30T12:40:02;15.68;;;4.32;;
64907;SDS011;69061;52.236;5.188;2024-01-30T12:42:29;13.98;;;4.05;;
64907;SDS011;69061;52.236;5.188;2024-01-30T12:44:56;11.10;;;4.22;;
64907;SDS011;69061;52.236;5.188;2024-01-30T12:47:23;16.48;;;4.95;;
64907;SDS011;69061;52.236;5.188;2024-01-30T12:49:50;14.27;;;3.90;;
64907;SDS011;69061;52.236;5.188;2024-01-30T12:52:18;11.68;;;4.47;;
64907;SDS011;69061;52.236;5.188;2024-01-30T12:54:45;16.95;;;4.70;;
64907;SDS011;69061;52.236;5.188;2024-01-30T12:57:14;10.45;;;4.47;;
64907;SDS011;69061;52.236;5.188;2024-01-30T12:59:41;15.57;;;4.55;;
64907;SDS011;69061;52.236;5.188;2024-01-30T13:02:08;11.25;;;5.13;;
64907;SDS011;69061;52.236;5.188;2024-01-30T13:04:34;16.98;;;4.72;;
64907;SDS011;69061;52.236;5.188;2024-01-30T13:07:03;18.40;;;5.68;;
64907;SDS011;69061;52.236;5.188;2024-01-30T13:09:29;14.30;;;4.88;;
64907;SDS011;69061;52.236;5.188;2024-01-30T13:11:56;11.52;;;5.78;;
64907;SDS011;69061;52.236;5.188;2024-01-30T13:14:24;11.65;;;5.20;;
64907;SDS011;69061;52.236;5.188;2024-01-30T13:16:51;16.55;;;5.35;;
64907;SDS011;69061;52.236;5.188;2024-01-30T13:19:20;11.50;;;5.03;;
64907;SDS011;69061;52.236;5.188;2024-01-30T13:21:47;12.80;;;5.68;;
64907;SDS011;69061;52.236;5.188;2024-01-30T13:24:14;24.48;;;8.70;;
64907;SDS011;69061;52.236;5.188;2024-01-30T13:26:41;16.13;;;5.53;;
64907;SDS011;69061;52.236;5.188;2024-01-30T13:29:08;18.90;;;5.47;;
64907;SDS011;69061;52.236;5.188;2024-01-30T13:31:36;14.10;;;5.93;;
64907;SDS011;69061;52.236;5.188;2024-01-30T13:34:04;16.20;;;6.03;;
64907;SDS011;69061;52.236;5.188;2024-01-30T13:36:31;15.23;;;6.53;;
64907;SDS011;69061;52.236;5.188;2024-01-30T13:38:58;10.85;;;5.93;;
64907;SDS011;69061;52.236;5.188;2024-01-30T13:41:26;13.05;;;6.05;;
64907;SDS011;69061;52.236;5.188;2024-01-30T13:43:53;14.00;;;5.78;;
64907;SDS011;69061;52.236;5.188;2024-01-30T13:46:20;17.27;;;6.78;;
64907;SDS011;69061;52.236;5.188;2024-01-30T13:48:48;16.25;;;6.95;;
64907;SDS011;69061;52.236;5.188;2024-01-30T13:51:15;15.63;;;6.88;;
64907;SDS011;69061;52.236;5.188;2024-01-30T13:53:42;20.23;;;7.40;;
64907;SDS011;69061;52.236;5.188;2024-01-30T13:56:08;12.57;;;6.40;;
64907;SDS011;69061;52.236;5.188;2024-01-30T13:58:35;15.50;;;7.93;;
64907;SDS011;69061;52.236;5.188;2024-01-30T14:01:02;15.48;;;7.28;;
64907;SDS011;69061;52.236;5.188;2024-01-30T14:03:28;11.30;;;6.85;;
64907;SDS011;69061;52.236;5.188;2024-01-30T14:05:57;19.55;;;7.28;;
64907;SDS011;69061;52.236;5.188;2024-01-30T14:08:23;14.18;;;7.75;;
64907;SDS011;69061;52.236;5.188;2024-01-30T14:10:53;13.77;;;6.80;;
64907;SDS011;69061;52.236;5.188;2024-01-30T14:13:19;10.80;;;6.28;;
64907;SDS011;69061;52.236;5.188;2024-01-30T14:15:47;12.32;;;6.50;;
64907;SDS011;69061;52.236;5.188;2024-01-30T14:18:14;12.50;;;6.75;;
64907;SDS011;69061;52.236;5.188;2024-01-30T14:20:41;19.48;;;7.47;;
64907;SDS011;69061;52.236;5.188;2024-01-30T14:23:09;17.27;;;9.00;;